createdAt,value
2018-03-26T00:00:26.340Z,1006.08
2018-03-26T00:01:26.319Z,1006.03
2018-03-26T00:02:26.298Z,1006.10
2018-03-26T00:03:26.274Z,1006.05
2018-03-26T00:04:26.264Z,1006.08
2018-03-26T00:05:26.238Z,1006.04
2018-03-26T00:06:26.214Z,1006.11
2018-03-26T00:07:26.200Z,1006.12
2018-03-26T00:08:26.178Z,1006.10
2018-03-26T00:09:26.158Z,1006.12
2018-03-26T00:10:26.137Z,1006.14
2018-03-26T00:11:26.115Z,1006.13
2018-03-26T00:12:26.095Z,1006.16
2018-03-26T00:13:26.079Z,1006.13
2018-03-26T00:14:26.058Z,1006.12
2018-03-26T00:15:26.037Z,1006.14
2018-03-26T00:16:26.020Z,1006.13
2018-03-26T00:17:25.997Z,1006.12
2018-03-26T00:18:25.975Z,1006.16
2018-03-26T00:19:25.958Z,1006.18
2018-03-26T00:20:25.936Z,1006.21
2018-03-26T00:21:25.923Z,1006.19
2018-03-26T00:22:25.894Z,1006.17
2018-03-26T00:23:25.877Z,1006.21
2018-03-26T00:24:25.855Z,1006.15
2018-03-26T00:25:25.907Z,1006.18
2018-03-26T00:26:25.821Z,1006.16
2018-03-26T00:27:25.807Z,1006.19
2018-03-26T00:28:25.800Z,1006.20
2018-03-26T00:29:25.768Z,1006.23
2018-03-26T00:30:25.734Z,1006.17
2018-03-26T00:31:25.715Z,1006.20
2018-03-26T00:32:25.694Z,1006.19
2018-03-26T00:33:25.676Z,1006.19
2018-03-26T00:34:25.658Z,1006.16
2018-03-26T00:35:25.635Z,1006.18
2018-03-26T00:36:25.617Z,1006.17
2018-03-26T00:37:25.594Z,1006.20
2018-03-26T00:38:25.573Z,1006.19
2018-03-26T00:39:25.569Z,1006.19
2018-03-26T00:40:25.535Z,1006.17
2018-03-26T00:41:25.512Z,1006.21
2018-03-26T00:42:25.491Z,1006.17
2018-03-26T00:43:25.473Z,1006.18
2018-03-26T00:44:25.455Z,1006.19
2018-03-26T00:45:25.433Z,1006.21
2018-03-26T00:46:25.411Z,1006.19
2018-03-26T00:47:25.499Z,1006.21
2018-03-26T00:48:25.391Z,1006.23
2018-03-26T00:49:25.352Z,1006.21
2018-03-26T00:50:25.333Z,1006.21
2018-03-26T00:51:25.308Z,1006.22
2018-03-26T00:52:25.288Z,1006.25
2018-03-26T00:53:25.271Z,1006.27
2018-03-26T00:54:25.251Z,1006.29
2018-03-26T00:55:25.228Z,1006.26
2018-03-26T00:56:25.221Z,1006.31
2018-03-26T00:57:25.188Z,1006.30
2018-03-26T00:58:25.169Z,1006.26
2018-03-26T00:59:25.150Z,1006.31
2018-03-26T01:00:25.129Z,1006.33
2018-03-26T01:01:25.106Z,1006.34
2018-03-26T01:02:25.089Z,1006.38
2018-03-26T01:03:25.075Z,1006.39
2018-03-26T01:04:25.053Z,1006.40
2018-03-26T01:05:25.028Z,1006.40
2018-03-26T01:06:25.003Z,1006.37
2018-03-26T01:07:24.990Z,1006.35
2018-03-26T01:08:24.962Z,1006.36
2018-03-26T01:09:24.942Z,1006.34
2018-03-26T01:10:24.920Z,1006.36
2018-03-26T01:11:24.901Z,1006.39
2018-03-26T01:12:24.879Z,1006.39
2018-03-26T01:13:24.867Z,1006.36
2018-03-26T01:14:24.859Z,1006.42
2018-03-26T01:15:24.819Z,1006.41
2018-03-26T01:16:24.797Z,1006.39
2018-03-26T01:17:24.832Z,1006.39
2018-03-26T01:18:24.757Z,1006.42
2018-03-26T01:19:24.736Z,1006.38
2018-03-26T01:20:24.719Z,1006.42
2018-03-26T01:21:24.696Z,1006.42
2018-03-26T01:22:24.676Z,1006.45
2018-03-26T01:23:24.662Z,1006.48
2018-03-26T01:24:24.635Z,1006.50
2018-03-26T01:25:24.615Z,1006.48
2018-03-26T01:26:24.596Z,1006.49
2018-03-26T01:27:24.576Z,1006.50
2018-03-26T01:28:24.559Z,1006.52
2018-03-26T01:29:24.530Z,1006.49
2018-03-26T01:30:24.510Z,1006.49
2018-03-26T01:31:24.488Z,1006.52
2018-03-26T01:32:24.466Z,1006.49
2018-03-26T01:33:24.456Z,1006.49
2018-03-26T01:34:24.427Z,1006.53
2018-03-26T01:35:24.407Z,1006.52
2018-03-26T01:36:24.507Z,1006.56
2018-03-26T01:37:24.367Z,1006.54
2018-03-26T01:38:24.354Z,1006.53
2018-03-26T01:39:24.423Z,1006.58
2018-03-26T01:40:24.339Z,1006.60
2018-03-26T01:41:24.284Z,1006.62
2018-03-26T01:42:24.272Z,1006.58
2018-03-26T01:43:24.250Z,1006.61
2018-03-26T01:44:24.222Z,1006.61
2018-03-26T01:45:24.204Z,1006.65
2018-03-26T01:46:24.204Z,1006.65
2018-03-26T01:47:24.157Z,1006.63
2018-03-26T01:48:24.138Z,1006.68
2018-03-26T01:49:24.117Z,1006.64
2018-03-26T01:50:24.098Z,1006.64
2018-03-26T01:51:24.077Z,1006.70
2018-03-26T01:52:24.059Z,1006.70
2018-03-26T01:53:24.043Z,1006.69
2018-03-26T01:54:24.022Z,1006.71
2018-03-26T01:55:24.004Z,1006.72
2018-03-26T01:56:23.985Z,1006.75
2018-03-26T01:57:23.964Z,1006.78
2018-03-26T01:58:23.934Z,1006.84
2018-03-26T01:59:23.915Z,1006.86
2018-03-26T02:00:23.887Z,1006.86
2018-03-26T02:01:23.867Z,1006.82
2018-03-26T02:02:23.854Z,1006.85
2018-03-26T02:03:23.832Z,1006.88
2018-03-26T02:04:23.803Z,1006.85
2018-03-26T02:05:23.782Z,1006.88
2018-03-26T02:06:23.847Z,1006.88
2018-03-26T02:07:23.760Z,1006.91
2018-03-26T02:08:23.728Z,1006.90
2018-03-26T02:09:23.704Z,1006.92
2018-03-26T02:10:23.687Z,1006.90
2018-03-26T02:11:23.661Z,1006.95
2018-03-26T02:12:23.636Z,1006.94
2018-03-26T02:13:23.615Z,1006.92
2018-03-26T02:14:23.595Z,1006.96
2018-03-26T02:15:23.586Z,1006.97
2018-03-26T02:16:23.562Z,1006.97
2018-03-26T02:17:23.532Z,1006.94
2018-03-26T02:18:23.509Z,1006.94
2018-03-26T02:19:23.502Z,1006.96
2018-03-26T02:20:23.470Z,1006.95
2018-03-26T02:21:23.449Z,1006.93
2018-03-26T02:22:23.434Z,1006.97
2018-03-26T02:23:23.406Z,1006.94
2018-03-26T02:24:23.384Z,1006.91
2018-03-26T02:25:23.398Z,1006.97
2018-03-26T02:26:23.340Z,1006.96
2018-03-26T02:27:23.322Z,1006.95
2018-03-26T02:28:23.301Z,1006.96
2018-03-26T02:29:23.287Z,1006.99
2018-03-26T02:30:23.259Z,1006.99
2018-03-26T02:31:23.238Z,1007.03
2018-03-26T02:32:23.243Z,1007.04
2018-03-26T02:33:23.198Z,1006.97
2018-03-26T02:34:23.178Z,1007.06
2018-03-26T02:35:23.152Z,1007.03
2018-03-26T02:36:23.133Z,1007.05
2018-03-26T02:37:23.114Z,1007.02
2018-03-26T02:38:23.090Z,1007.06
2018-03-26T02:39:23.070Z,1007.04
2018-03-26T02:40:23.048Z,1007.08
2018-03-26T02:41:23.027Z,1007.10
2018-03-26T02:42:23.017Z,1007.07
2018-03-26T02:43:22.988Z,1007.07
2018-03-26T02:44:22.982Z,1007.07
2018-03-26T02:45:22.943Z,1007.07
2018-03-26T02:46:22.936Z,1007.06
2018-03-26T02:47:22.909Z,1007.11
2018-03-26T02:48:22.880Z,1007.13
2018-03-26T02:49:22.877Z,1007.16
2018-03-26T02:50:22.840Z,1007.15
2018-03-26T02:51:22.817Z,1007.14
2018-03-26T02:52:22.797Z,1007.13
2018-03-26T02:53:22.842Z,1007.14
2018-03-26T02:54:22.763Z,1007.14
2018-03-26T02:55:22.742Z,1007.14
2018-03-26T02:56:22.710Z,1007.16
2018-03-26T02:57:22.688Z,1007.17
2018-03-26T02:58:22.673Z,1007.13
2018-03-26T02:59:22.646Z,1007.14
2018-03-26T03:00:22.637Z,1007.12
2018-03-26T03:01:22.605Z,1007.09
2018-03-26T03:02:22.590Z,1007.10
2018-03-26T03:03:22.560Z,1007.14
2018-03-26T03:04:22.541Z,1007.17
2018-03-26T03:05:22.519Z,1007.13
2018-03-26T03:06:22.495Z,1007.17
2018-03-26T03:07:22.474Z,1007.17
2018-03-26T03:08:22.458Z,1007.17
2018-03-26T03:09:22.440Z,1007.21
2018-03-26T03:10:22.414Z,1007.17
2018-03-26T03:11:22.397Z,1007.17
2018-03-26T03:12:22.368Z,1007.17
2018-03-26T03:13:22.346Z,1007.22
2018-03-26T03:14:22.325Z,1007.23
2018-03-26T03:15:22.303Z,1007.20
2018-03-26T03:16:22.286Z,1007.24
2018-03-26T03:17:22.352Z,1007.22
2018-03-26T03:18:22.240Z,1007.20
2018-03-26T03:19:22.218Z,1007.23
2018-03-26T03:20:22.225Z,1007.19
2018-03-26T03:21:22.186Z,1007.19
2018-03-26T03:22:22.151Z,1007.18
2018-03-26T03:23:22.134Z,1007.13
2018-03-26T03:24:22.110Z,1007.19
2018-03-26T03:25:22.089Z,1007.19
2018-03-26T03:26:22.072Z,1007.18
2018-03-26T03:27:22.046Z,1007.18
2018-03-26T03:28:22.027Z,1007.19
2018-03-26T03:29:22.004Z,1007.20
2018-03-26T03:30:21.981Z,1007.20
2018-03-26T03:31:21.965Z,1007.19
2018-03-26T03:32:21.940Z,1007.21
2018-03-26T03:33:21.922Z,1007.20
2018-03-26T03:34:21.897Z,1007.22
2018-03-26T03:35:21.873Z,1007.21
2018-03-26T03:36:21.853Z,1007.25
2018-03-26T03:37:21.832Z,1007.24
2018-03-26T03:38:21.839Z,1007.22
2018-03-26T03:39:21.858Z,1007.21
2018-03-26T03:40:21.767Z,1007.22
2018-03-26T03:41:21.758Z,1007.20
2018-03-26T03:42:21.725Z,1007.24
2018-03-26T03:43:21.702Z,1007.22
2018-03-26T03:44:21.682Z,1007.19
2018-03-26T03:45:21.662Z,1007.25
2018-03-26T03:46:21.640Z,1007.26
2018-03-26T03:47:21.731Z,1007.25
2018-03-26T03:48:21.593Z,1007.28
2018-03-26T03:49:21.580Z,1007.26
2018-03-26T03:50:21.668Z,1007.30
2018-03-26T03:51:21.530Z,1007.25
2018-03-26T03:52:21.510Z,1007.26
2018-03-26T03:53:21.491Z,1007.26
2018-03-26T03:54:21.469Z,1007.29
2018-03-26T03:55:21.444Z,1007.27
2018-03-26T03:56:21.464Z,1007.25
2018-03-26T03:57:21.403Z,1007.29
2018-03-26T03:58:21.380Z,1007.26
2018-03-26T03:59:21.359Z,1007.29
2018-03-26T04:00:21.337Z,1007.27
2018-03-26T04:01:21.320Z,1007.30
2018-03-26T04:02:21.292Z,1007.26
2018-03-26T04:03:21.277Z,1007.25
2018-03-26T04:04:21.257Z,1007.26
2018-03-26T04:05:21.229Z,1007.25
2018-03-26T04:06:21.206Z,1007.26
2018-03-26T04:07:21.184Z,1007.26
2018-03-26T04:08:21.166Z,1007.32
2018-03-26T04:09:21.141Z,1007.28
2018-03-26T04:10:21.125Z,1007.31
2018-03-26T04:11:21.107Z,1007.30
2018-03-26T04:12:21.084Z,1007.30
2018-03-26T04:13:21.057Z,1007.25
2018-03-26T04:14:21.034Z,1007.32
2018-03-26T04:15:21.010Z,1007.34
2018-03-26T04:16:20.990Z,1007.34
2018-03-26T04:17:20.968Z,1007.32
2018-03-26T04:18:20.954Z,1007.35
2018-03-26T04:19:20.940Z,1007.33
2018-03-26T04:20:20.900Z,1007.38
2018-03-26T04:21:20.880Z,1007.38
2018-03-26T04:22:20.946Z,1007.35
2018-03-26T04:23:20.838Z,1007.37
2018-03-26T04:24:20.817Z,1007.41
2018-03-26T04:25:20.806Z,1007.40
2018-03-26T04:26:20.776Z,1007.40
2018-03-26T04:27:20.750Z,1007.39
2018-03-26T04:28:20.729Z,1007.41
2018-03-26T04:29:20.707Z,1007.46
2018-03-26T04:30:20.684Z,1007.46
2018-03-26T04:31:20.665Z,1007.47
2018-03-26T04:32:20.645Z,1007.46
2018-03-26T04:33:20.623Z,1007.47
2018-03-26T04:34:20.599Z,1007.50
2018-03-26T04:35:20.690Z,1007.47
2018-03-26T04:36:20.556Z,1007.52
2018-03-26T04:37:20.533Z,1007.48
2018-03-26T04:38:20.514Z,1007.47
2018-03-26T04:39:20.495Z,1007.44
2018-03-26T04:40:20.467Z,1007.50
2018-03-26T04:41:20.597Z,1007.51
2018-03-26T04:42:20.423Z,1007.54
2018-03-26T04:43:20.402Z,1007.53
2018-03-26T04:44:20.485Z,1007.49
2018-03-26T04:45:20.363Z,1007.46
2018-03-26T04:46:20.338Z,1007.50
2018-03-26T04:47:20.318Z,1007.52
2018-03-26T04:48:20.293Z,1007.51
2018-03-26T04:49:20.272Z,1007.50
2018-03-26T04:50:20.313Z,1007.53
2018-03-26T04:51:20.226Z,1007.52
2018-03-26T04:52:20.276Z,1007.53
2018-03-26T04:53:20.184Z,1007.53
2018-03-26T04:54:20.161Z,1007.53
2018-03-26T04:55:20.194Z,1007.54
2018-03-26T04:56:20.128Z,1007.56
2018-03-26T04:57:20.102Z,1007.58
2018-03-26T04:58:20.079Z,1007.57
2018-03-26T04:59:20.060Z,1007.57
2018-03-26T05:00:20.033Z,1007.56
2018-03-26T05:01:20.012Z,1007.57
2018-03-26T05:02:19.999Z,1007.60
2018-03-26T05:03:19.973Z,1007.61
2018-03-26T05:04:19.945Z,1007.63
2018-03-26T05:05:19.925Z,1007.60
2018-03-26T05:06:19.902Z,1007.65
2018-03-26T05:07:19.878Z,1007.63
2018-03-26T05:08:19.860Z,1007.62
2018-03-26T05:09:19.837Z,1007.64
2018-03-26T05:10:19.815Z,1007.68
2018-03-26T05:11:19.810Z,1007.64
2018-03-26T05:12:19.773Z,1007.65
2018-03-26T05:13:19.748Z,1007.67
2018-03-26T05:14:19.876Z,1007.68
2018-03-26T05:15:19.703Z,1007.73
2018-03-26T05:16:19.684Z,1007.72
2018-03-26T05:17:19.660Z,1007.71
2018-03-26T05:18:19.638Z,1007.73
2018-03-26T05:19:19.617Z,1007.74
2018-03-26T05:20:19.605Z,1007.77
2018-03-26T05:21:19.580Z,1007.78
2018-03-26T05:22:19.557Z,1007.82
2018-03-26T05:23:19.539Z,1007.83
2018-03-26T05:24:19.507Z,1007.85
2018-03-26T05:25:19.486Z,1007.87
2018-03-26T05:26:19.462Z,1007.91
2018-03-26T05:27:19.442Z,1007.91
2018-03-26T05:28:19.440Z,1007.90
2018-03-26T05:29:19.399Z,1007.90
2018-03-26T05:30:19.386Z,1007.96
2018-03-26T05:31:19.356Z,1007.95
2018-03-26T05:32:19.337Z,1007.97
2018-03-26T05:33:19.454Z,1008.03
2018-03-26T05:34:19.294Z,1007.99
2018-03-26T05:35:19.266Z,1008.02
2018-03-26T05:36:19.252Z,1008.01
2018-03-26T05:37:19.225Z,1008.00
2018-03-26T05:38:19.202Z,1008.05
2018-03-26T05:39:19.182Z,1008.05
2018-03-26T05:40:19.158Z,1007.99
2018-03-26T05:41:19.137Z,1008.11
2018-03-26T05:42:19.127Z,1008.12
2018-03-26T05:43:19.098Z,1008.14
2018-03-26T05:44:19.133Z,1008.19
2018-03-26T05:45:19.052Z,1008.18
2018-03-26T05:46:19.028Z,1008.19
2018-03-26T05:47:19.052Z,1008.23
2018-03-26T05:48:18.979Z,1008.21
2018-03-26T05:49:18.960Z,1008.27
2018-03-26T05:50:18.945Z,1008.24
2018-03-26T05:51:18.925Z,1008.27
2018-03-26T05:52:18.894Z,1008.29
2018-03-26T05:53:18.875Z,1008.36
2018-03-26T05:54:18.849Z,1008.38
2018-03-26T05:55:18.828Z,1008.38
2018-03-26T05:56:18.808Z,1008.34
2018-03-26T05:57:18.783Z,1008.42
2018-03-26T05:58:18.762Z,1008.40
2018-03-26T05:59:18.743Z,1008.43
2018-03-26T06:00:18.718Z,1008.43
2018-03-26T06:01:18.697Z,1008.47
2018-03-26T06:02:18.675Z,1008.49
2018-03-26T06:03:18.659Z,1008.48
2018-03-26T06:04:18.633Z,1008.45
2018-03-26T06:05:18.609Z,1008.49
2018-03-26T06:06:18.588Z,1008.51
2018-03-26T06:07:18.572Z,1008.52
2018-03-26T06:08:18.541Z,1008.53
2018-03-26T06:09:18.665Z,1008.59
2018-03-26T06:10:18.501Z,1008.56
2018-03-26T06:11:18.477Z,1008.57
2018-03-26T06:12:18.459Z,1008.62
2018-03-26T06:13:18.433Z,1008.59
2018-03-26T06:14:18.422Z,1008.63
2018-03-26T06:15:18.389Z,1008.63
2018-03-26T06:16:18.368Z,1008.62
2018-03-26T06:17:18.346Z,1008.63
2018-03-26T06:18:18.323Z,1008.67
2018-03-26T06:19:18.308Z,1008.66
2018-03-26T06:20:18.281Z,1008.66
2018-03-26T06:21:18.260Z,1008.74
2018-03-26T06:22:18.239Z,1008.71
2018-03-26T06:23:18.215Z,1008.69
2018-03-26T06:24:18.192Z,1008.69
2018-03-26T06:25:18.176Z,1008.71
2018-03-26T06:26:18.350Z,1008.71
2018-03-26T06:27:18.130Z,1008.72
2018-03-26T06:28:18.111Z,1008.76
2018-03-26T06:29:18.242Z,1008.76
2018-03-26T06:30:18.062Z,1008.76
2018-03-26T06:31:18.042Z,1008.79
2018-03-26T06:32:18.040Z,1008.80
2018-03-26T06:33:18.003Z,1008.83
2018-03-26T06:34:17.977Z,1008.84
2018-03-26T06:35:17.960Z,1008.84
2018-03-26T06:36:17.939Z,1008.88
2018-03-26T06:37:17.913Z,1008.90
2018-03-26T06:38:17.894Z,1008.86
2018-03-26T06:39:17.870Z,1008.88
2018-03-26T06:40:17.866Z,1008.90
2018-03-26T06:41:17.825Z,1008.90
2018-03-26T06:42:17.808Z,1008.92
2018-03-26T06:43:17.785Z,1008.99
2018-03-26T06:44:17.798Z,1008.94
2018-03-26T06:45:17.748Z,1009.01
2018-03-26T06:46:17.733Z,1009.04
2018-03-26T06:47:17.699Z,1009.04
2018-03-26T06:48:17.687Z,1009.05
2018-03-26T06:49:17.663Z,1009.08
2018-03-26T06:50:17.646Z,1009.10
2018-03-26T06:51:17.635Z,1009.10
2018-03-26T06:52:17.598Z,1009.08
2018-03-26T06:53:17.584Z,1009.08
2018-03-26T06:54:17.560Z,1009.10
2018-03-26T06:55:17.538Z,1009.13
2018-03-26T06:56:17.510Z,1009.16
2018-03-26T06:57:17.489Z,1009.19
2018-03-26T06:58:17.470Z,1009.19
2018-03-26T06:59:17.459Z,1009.20
2018-03-26T07:00:17.429Z,1009.27
2018-03-26T07:01:17.406Z,1009.25
2018-03-26T07:02:17.393Z,1009.23
2018-03-26T07:03:17.365Z,1009.23
2018-03-26T07:04:17.458Z,1009.22
2018-03-26T07:05:17.320Z,1009.23
2018-03-26T07:06:17.300Z,1009.28
2018-03-26T07:07:17.284Z,1009.26
2018-03-26T07:08:17.259Z,1009.27
2018-03-26T07:09:17.253Z,1009.28
2018-03-26T07:10:17.214Z,1009.32
2018-03-26T07:11:17.195Z,1009.33
2018-03-26T07:12:17.183Z,1009.32
2018-03-26T07:13:17.163Z,1009.38
2018-03-26T07:14:17.236Z,1009.40
2018-03-26T07:15:17.123Z,1009.43
2018-03-26T07:16:17.098Z,1009.46
2018-03-26T07:17:17.069Z,1009.41
2018-03-26T07:18:17.059Z,1009.44
2018-03-26T07:19:17.026Z,1009.41
2018-03-26T07:20:17.006Z,1009.44
2018-03-26T07:21:16.988Z,1009.42
2018-03-26T07:22:16.965Z,1009.44
2018-03-26T07:23:16.943Z,1009.44
2018-03-26T07:24:16.937Z,1009.42
2018-03-26T07:25:16.905Z,1009.46
2018-03-26T07:26:16.883Z,1009.46
2018-03-26T07:27:16.869Z,1009.51
2018-03-26T07:28:16.838Z,1009.49
2018-03-26T07:29:16.819Z,1009.44
2018-03-26T07:30:16.932Z,1009.50
2018-03-26T07:31:16.777Z,1009.53
2018-03-26T07:32:16.755Z,1009.53
2018-03-26T07:33:16.794Z,1009.55
2018-03-26T07:34:16.716Z,1009.51
2018-03-26T07:35:16.692Z,1009.54
2018-03-26T07:36:16.682Z,1009.54
2018-03-26T07:37:16.652Z,1009.54
2018-03-26T07:38:16.641Z,1009.56
2018-03-26T07:39:16.617Z,1009.55
2018-03-26T07:40:16.599Z,1009.55
2018-03-26T07:41:16.716Z,1009.58
2018-03-26T07:42:16.570Z,1009.58
2018-03-26T07:43:16.531Z,1009.56
2018-03-26T07:44:16.510Z,1009.52
2018-03-26T07:45:16.493Z,1009.49
2018-03-26T07:46:16.465Z,1009.52
2018-03-26T07:47:16.445Z,1009.51
2018-03-26T07:48:16.422Z,1009.53
2018-03-26T07:49:16.408Z,1009.55
2018-03-26T07:50:16.384Z,1009.58
2018-03-26T07:51:16.360Z,1009.56
2018-03-26T07:52:16.364Z,1009.57
2018-03-26T07:53:16.321Z,1009.55
2018-03-26T07:54:16.302Z,1009.57
2018-03-26T07:55:16.280Z,1009.59
2018-03-26T07:56:16.262Z,1009.62
2018-03-26T07:57:16.240Z,1009.69
2018-03-26T07:58:16.219Z,1009.71
2018-03-26T07:59:16.194Z,1009.79
2018-03-26T08:00:16.174Z,1009.73
2018-03-26T08:01:16.160Z,1009.80
2018-03-26T08:02:16.133Z,1009.78
2018-03-26T08:03:16.264Z,1009.78
2018-03-26T08:04:16.098Z,1009.83
2018-03-26T08:05:16.084Z,1009.78
2018-03-26T08:06:16.102Z,1009.88
2018-03-26T08:07:16.037Z,1009.93
2018-03-26T08:08:16.028Z,1010.00
2018-03-26T08:09:15.999Z,1010.02
2018-03-26T08:10:15.977Z,1010.07
2018-03-26T08:11:15.960Z,1010.01
2018-03-26T08:12:15.939Z,1010.04
2018-03-26T08:13:15.922Z,1010.07
2018-03-26T08:14:15.907Z,1010.08
2018-03-26T08:15:15.894Z,1010.14
2018-03-26T08:16:15.877Z,1010.14
2018-03-26T08:17:15.862Z,1010.17
2018-03-26T08:18:15.840Z,1010.14
2018-03-26T08:19:15.817Z,1010.17
2018-03-26T08:20:15.812Z,1010.18
2018-03-26T08:21:15.787Z,1010.17
2018-03-26T08:22:15.895Z,1010.18
2018-03-26T08:23:15.760Z,1010.21
2018-03-26T08:24:15.744Z,1010.23
2018-03-26T08:25:15.730Z,1010.26
2018-03-26T08:26:15.709Z,1010.29
2018-03-26T08:27:15.696Z,1010.23
2018-03-26T08:28:15.678Z,1010.24
2018-03-26T08:29:15.666Z,1010.24
2018-03-26T08:30:15.666Z,1010.22
2018-03-26T08:31:15.640Z,1010.29
2018-03-26T08:32:15.631Z,1010.33
2018-03-26T08:33:15.610Z,1010.28
2018-03-26T08:34:15.595Z,1010.35
2018-03-26T08:35:15.577Z,1010.29
2018-03-26T08:36:15.570Z,1010.32
2018-03-26T08:37:15.548Z,1010.36
2018-03-26T08:38:15.550Z,1010.39
2018-03-26T08:39:15.525Z,1010.48
2018-03-26T08:40:15.510Z,1010.44
2018-03-26T08:41:15.502Z,1010.45
2018-03-26T08:42:15.500Z,1010.50
2018-03-26T08:43:15.507Z,1010.51
2018-03-26T08:44:15.508Z,1010.49
2018-03-26T08:45:15.438Z,1010.56
2018-03-26T08:46:15.432Z,1010.55
2018-03-26T08:47:15.409Z,1010.60
2018-03-26T08:48:15.397Z,1010.59
2018-03-26T08:49:15.392Z,1010.53
2018-03-26T08:50:15.443Z,1010.53
2018-03-26T08:51:15.355Z,1010.59
2018-03-26T08:52:15.342Z,1010.64
2018-03-26T08:53:15.336Z,1010.56
2018-03-26T08:54:15.318Z,1010.65
2018-03-26T08:55:15.304Z,1010.63
2018-03-26T08:56:15.326Z,1010.49
2018-03-26T08:57:15.281Z,1010.54
2018-03-26T08:58:15.276Z,1010.62
2018-03-26T08:59:15.279Z,1010.59
2018-03-26T09:00:15.245Z,1010.54
2018-03-26T09:01:15.250Z,1010.58
2018-03-26T09:02:15.220Z,1010.62
2018-03-26T09:03:15.335Z,1010.53
2018-03-26T09:04:15.202Z,1010.49
2018-03-26T09:05:15.194Z,1010.58
2018-03-26T09:06:15.227Z,1010.46
2018-03-26T09:07:15.164Z,1010.50
2018-03-26T09:08:15.153Z,1010.54
2018-03-26T09:09:15.146Z,1010.55
2018-03-26T09:10:15.131Z,1010.54
2018-03-26T09:11:15.125Z,1010.54
2018-03-26T09:12:15.114Z,1010.51
2018-03-26T09:13:15.103Z,1010.63
2018-03-26T09:14:15.093Z,1010.61
2018-03-26T09:15:15.082Z,1010.58
2018-03-26T09:16:15.072Z,1010.63
2018-03-26T09:17:15.066Z,1010.65
2018-03-26T09:18:15.055Z,1010.68
2018-03-26T09:19:15.046Z,1010.67
2018-03-26T09:20:15.040Z,1010.70
2018-03-26T09:21:15.041Z,1010.73
2018-03-26T09:22:15.020Z,1010.79
2018-03-26T09:23:15.019Z,1010.76
2018-03-26T09:24:15.008Z,1010.81
2018-03-26T09:25:14.995Z,1010.80
2018-03-26T09:26:15.001Z,1010.81
2018-03-26T09:27:14.979Z,1010.81
2018-03-26T09:28:14.972Z,1010.83
2018-03-26T09:29:14.961Z,1010.78
2018-03-26T09:30:14.952Z,1010.79
2018-03-26T09:31:14.948Z,1010.88
2018-03-26T09:32:14.947Z,1010.83
2018-03-26T09:33:14.937Z,1010.80
2018-03-26T09:34:14.923Z,1010.91
2018-03-26T09:35:14.972Z,1010.92
2018-03-26T09:36:14.967Z,1010.91
2018-03-26T09:37:14.902Z,1010.94
2018-03-26T09:38:14.897Z,1010.94
2018-03-26T09:39:14.908Z,1010.92
2018-03-26T09:40:14.881Z,1010.96
2018-03-26T09:41:14.883Z,1011.00
2018-03-26T09:42:14.881Z,1010.97
2018-03-26T09:43:14.862Z,1010.92
2018-03-26T09:44:14.847Z,1010.96
2018-03-26T09:45:14.850Z,1010.97
2018-03-26T09:46:14.859Z,1010.93
2018-03-26T09:47:14.836Z,1010.92
2018-03-26T09:48:14.835Z,1010.91
2018-03-26T09:49:14.845Z,1010.94
2018-03-26T09:50:14.818Z,1010.92
2018-03-26T09:51:14.815Z,1010.91
2018-03-26T09:52:14.915Z,1010.93
2018-03-26T09:53:14.863Z,1010.88
2018-03-26T09:54:14.798Z,1010.89
2018-03-26T09:55:14.858Z,1010.89
2018-03-26T09:56:14.789Z,1010.89
2018-03-26T09:57:14.779Z,1010.88
2018-03-26T09:58:14.788Z,1010.89
2018-03-26T09:59:14.770Z,1010.89
2018-03-26T10:00:14.764Z,1010.90
2018-03-26T10:01:14.761Z,1010.87
2018-03-26T10:02:14.755Z,1010.88
2018-03-26T10:03:14.755Z,1010.82
2018-03-26T10:04:14.781Z,1010.83
2018-03-26T10:05:14.806Z,1010.86
2018-03-26T10:06:14.734Z,1010.86
2018-03-26T10:07:14.729Z,1010.87
2018-03-26T10:08:14.834Z,1010.88
2018-03-26T10:09:14.727Z,1010.89
2018-03-26T10:10:14.724Z,1010.94
2018-03-26T10:11:14.714Z,1010.92
2018-03-26T10:12:14.714Z,1010.89
2018-03-26T10:13:14.703Z,1010.88
2018-03-26T10:14:14.694Z,1010.89
2018-03-26T10:15:14.687Z,1010.87
2018-03-26T10:16:14.687Z,1010.88
2018-03-26T10:17:14.682Z,1010.90
2018-03-26T10:18:14.672Z,1010.87
2018-03-26T10:19:14.673Z,1010.90
2018-03-26T10:20:14.666Z,1010.88
2018-03-26T10:21:14.663Z,1010.89
2018-03-26T10:22:14.657Z,1010.92
2018-03-26T10:23:14.652Z,1010.92
2018-03-26T10:24:14.644Z,1010.90
2018-03-26T10:25:14.700Z,1010.93
2018-03-26T10:26:14.636Z,1010.97
2018-03-26T10:27:14.640Z,1010.99
2018-03-26T10:28:14.678Z,1011.03
2018-03-26T10:29:14.621Z,1011.07
2018-03-26T10:30:14.622Z,1011.05
2018-03-26T10:31:14.643Z,1011.05
2018-03-26T10:32:14.611Z,1011.04
2018-03-26T10:33:14.603Z,1011.05
2018-03-26T10:34:14.607Z,1010.95
2018-03-26T10:35:14.597Z,1011.05
2018-03-26T10:36:14.595Z,1011.07
2018-03-26T10:37:14.584Z,1011.11
2018-03-26T10:38:14.582Z,1011.16
2018-03-26T10:39:14.581Z,1011.15
2018-03-26T10:40:14.570Z,1011.15
2018-03-26T10:41:14.562Z,1011.17
2018-03-26T10:42:14.560Z,1011.16
2018-03-26T10:43:14.552Z,1011.25
2018-03-26T10:44:14.553Z,1011.23
2018-03-26T10:45:14.552Z,1011.23
2018-03-26T10:46:14.663Z,1011.20
2018-03-26T10:47:14.532Z,1011.26
2018-03-26T10:48:14.526Z,1011.28
2018-03-26T10:49:14.533Z,1011.30
2018-03-26T10:50:14.516Z,1011.36
2018-03-26T10:51:14.511Z,1011.40
2018-03-26T10:52:14.510Z,1011.43
2018-03-26T10:53:14.498Z,1011.50
2018-03-26T10:54:14.497Z,1011.45
2018-03-26T10:55:14.493Z,1011.43
2018-03-26T10:56:14.488Z,1011.47
2018-03-26T10:57:14.477Z,1011.51
2018-03-26T10:58:14.469Z,1011.55
2018-03-26T10:59:14.563Z,1011.50
2018-03-26T11:00:14.471Z,1011.43
2018-03-26T11:01:14.451Z,1011.36
2018-03-26T11:02:14.447Z,1011.38
2018-03-26T11:03:14.476Z,1011.38
2018-03-26T11:04:14.440Z,1011.37
2018-03-26T11:05:14.437Z,1011.41
2018-03-26T11:06:14.424Z,1011.48
2018-03-26T11:07:14.417Z,1011.53
2018-03-26T11:08:14.493Z,1011.43
2018-03-26T11:09:14.405Z,1011.48
2018-03-26T11:10:14.400Z,1011.41
2018-03-26T11:11:14.403Z,1011.44
2018-03-26T11:12:14.388Z,1011.42
2018-03-26T11:13:14.386Z,1011.49
2018-03-26T11:14:14.389Z,1011.45
2018-03-26T11:15:14.398Z,1011.47
2018-03-26T11:17:14.352Z,1011.52
2018-03-26T11:18:14.404Z,1011.54
2018-03-26T11:19:14.344Z,1011.53
2018-03-26T11:20:14.331Z,1011.51
2018-03-26T11:21:14.322Z,1011.52
2018-03-26T11:22:14.327Z,1011.52
2018-03-26T11:23:14.326Z,1011.57
2018-03-26T11:24:14.306Z,1011.58
2018-03-26T11:25:14.299Z,1011.58
2018-03-26T11:26:14.286Z,1011.61
2018-03-26T11:27:14.284Z,1011.41
2018-03-26T11:28:14.274Z,1011.47
2018-03-26T11:29:14.270Z,1011.55
2018-03-26T11:30:14.266Z,1011.57
2018-03-26T11:31:14.258Z,1011.57
2018-03-26T11:32:14.248Z,1011.54
2018-03-26T11:33:14.245Z,1011.67
2018-03-26T11:34:14.237Z,1011.80
2018-03-26T11:35:14.229Z,1011.82
2018-03-26T11:36:14.443Z,1011.71
2018-03-26T11:37:14.213Z,1011.79
2018-03-26T11:38:14.212Z,1011.60
2018-03-26T11:39:14.278Z,1011.53
2018-03-26T11:40:14.206Z,1011.53
2018-03-26T11:41:14.189Z,1011.50
2018-03-26T11:42:14.177Z,1011.68
2018-03-26T11:43:14.172Z,1011.60
2018-03-26T11:44:14.162Z,1011.63
2018-03-26T11:45:14.155Z,1011.54
2018-03-26T11:46:14.145Z,1011.49
2018-03-26T11:47:14.137Z,1011.56
2018-03-26T11:48:14.136Z,1011.50
2018-03-26T11:49:14.132Z,1011.35
2018-03-26T11:50:14.111Z,1011.26
2018-03-26T11:51:14.107Z,1011.26
2018-03-26T11:52:14.096Z,1011.17
2018-03-26T11:53:14.087Z,1011.10
2018-03-26T11:54:14.077Z,1011.09
2018-03-26T11:55:14.133Z,1011.00
2018-03-26T11:56:14.069Z,1011.04
2018-03-26T11:57:14.056Z,1010.94
2018-03-26T11:58:14.044Z,1010.83
2018-03-26T11:59:14.032Z,1010.77
2018-03-26T12:00:14.030Z,1010.75
2018-03-26T12:01:14.023Z,1010.72
2018-03-26T12:02:14.003Z,1010.67
2018-03-26T12:03:13.992Z,1010.67
2018-03-26T12:04:13.982Z,1010.67
2018-03-26T12:05:14.030Z,1010.71
2018-03-26T12:06:13.968Z,1010.68